www.cux-wetter.de
Wetterdaten: Woche 07.02.11 - 13.02.11 (KW6)
Datum Zeit Temp. A. Feuchte A. Luftdruck Regen Wind Richtung Sonnenschein Solar Taupunkt Windchill Windben
07.02.2011 00:00 8,5 C 85 % 1013,4 hPa 0,0 l/m 41,7 km/h (6 Bft) W 0,00 h 0 W/m 6,1 C -3,5 C 41,7 km/h (6 Bft)
07.02.2011 01:00 8,5 C 86 % 1013,5 hPa 0,3 l/m 37,4 km/h (5 Bft) W 0,00 h 0 W/m 6,3 C -2,9 C 37,4 km/h (5 Bft)
07.02.2011 02:00 8,1 C 90 % 1013,5 hPa 0,3 l/m 35,4 km/h (5 Bft) W 0,00 h 0 W/m 6,5 C -3,1 C 35,4 km/h (5 Bft)
07.02.2011 03:00 7,9 C 92 % 1013,5 hPa 0,3 l/m 35,7 km/h (5 Bft) W 0,00 h 0 W/m 6,7 C -3,4 C 35,7 km/h (5 Bft)
07.02.2011 04:00 8,0 C 91 % 1013,5 hPa 0,0 l/m 37,2 km/h (5 Bft) W 0,00 h 0 W/m 6,7 C -3,6 C 37,2 km/h (5 Bft)
07.02.2011 05:00 8,2 C 89 % 1013,5 hPa 0,3 l/m 38,0 km/h (6 Bft) W 0,00 h 0 W/m 6,5 C -3,4 C 38,0 km/h (6 Bft)
07.02.2011 06:00 7,9 C 89 % 1013,5 hPa 0,3 l/m 36,3 km/h (5 Bft) W 0,00 h 0 W/m 6,3 C -3,5 C 36,3 km/h (5 Bft)
07.02.2011 07:00 7,9 C 88 % 1013,5 hPa 0,0 l/m 37,0 km/h (5 Bft) W-SW 0,00 h 0 W/m 6,1 C -3,8 C 37,0 km/h (5 Bft)
07.02.2011 08:00 8,0 C 87 % 1013,5 hPa 0,0 l/m 33,8 km/h (5 Bft) W-SW 0,00 h 0 W/m 5,9 C -2,9 C 33,8 km/h (5 Bft)
07.02.2011 09:00 8,3 C 84 % 1013,5 hPa 0,0 l/m 37,2 km/h (5 Bft) W 0,00 h 0 W/m 5,9 C -3,1 C 37,2 km/h (5 Bft)
07.02.2011 10:00 8,4 C 84 % 1012,5 hPa 0,0 l/m 33,2 km/h (5 Bft) W-SW 0,00 h 0 W/m 5,8 C -2,2 C 33,2 km/h (5 Bft)
07.02.2011 11:00 8,5 C 80 % 1011,6 hPa 0,0 l/m 35,3 km/h (5 Bft) W-SW 0,00 h 0 W/m 5,2 C -2,5 C 35,3 km/h (5 Bft)
07.02.2011 12:00 8,6 C 78 % 1010,5 hPa 0,0 l/m 35,9 km/h (5 Bft) W-SW 0,00 h 0 W/m 5,0 C -2,4 C 35,9 km/h (5 Bft)
07.02.2011 13:00 8,4 C 77 % 1009,7 hPa 0,0 l/m 34,6 km/h (5 Bft) W-SW 0,00 h 0 W/m 4,7 C -2,5 C 34,6 km/h (5 Bft)
07.02.2011 14:00 8,6 C 77 % 1008,5 hPa 0,0 l/m 33,9 km/h (5 Bft) W-SW 0,00 h 0 W/m 4,8 C -2,2 C 33,9 km/h (5 Bft)
07.02.2011 15:00 8,6 C 77 % 1007,6 hPa 0,0 l/m 31,6 km/h (5 Bft) W-SW 0,00 h 0 W/m 4,7 C -1,7 C 31,6 km/h (5 Bft)
07.02.2011 16:00 7,9 C 78 % 1007,0 hPa 0,0 l/m 31,0 km/h (5 Bft) W-SW 0,00 h 0 W/m 4,3 C -2,5 C 31,0 km/h (5 Bft)
07.02.2011 17:00 7,8 C 79 % 1006,0 hPa 0,0 l/m 28,6 km/h (5 Bft) W-SW 0,00 h 0 W/m 4,5 C -2,0 C 28,6 km/h (5 Bft)
07.02.2011 18:00 8,2 C 81 % 1004,8 hPa 0,0 l/m 39,1 km/h (6 Bft) W-SW 0,00 h 0 W/m 5,1 C -3,6 C 39,1 km/h (6 Bft)
07.02.2011 19:00 8,6 C 82 % 1004,1 hPa 0,0 l/m 45,9 km/h (6 Bft) W 0,00 h 0 W/m 5,8 C -3,9 C 45,9 km/h (6 Bft)
07.02.2011 20:00 9,0 C 83 % 1003,5 hPa 0,0 l/m 51,2 km/h (7 Bft) W 0,00 h 0 W/m 6,2 C -4,0 C 51,2 km/h (7 Bft)
07.02.2011 21:00 8,2 C 77 % 1004,7 hPa 0,0 l/m 54,0 km/h (7 Bft) W-NW 0,00 h 0 W/m 4,5 C -5,5 C 54,0 km/h (7 Bft)
07.02.2011 22:00 6,8 C 78 % 1006,2 hPa 0,0 l/m 47,1 km/h (6 Bft) W-NW 0,00 h 0 W/m 3,2 C -6,8 C 47,1 km/h (6 Bft)
07.02.2011 23:00 6,6 C 80 % 1007,1 hPa 0,0 l/m 44,9 km/h (6 Bft) W-NW 0,00 h 0 W/m 3,4 C -6,9 C 44,9 km/h (6 Bft)
08.02.2011 00:00 6,3 C 83 % 1008,0 hPa 0,0 l/m 38,4 km/h (6 Bft) W-NW 0,00 h 0 W/m 3,5 C -6,3 C 38,4 km/h (6 Bft)
08.02.2011 01:00 6,1 C 83 % 1008,8 hPa 0,0 l/m 35,7 km/h (5 Bft) W-NW 0,00 h 0 W/m 3,5 C -6,0 C 35,7 km/h (5 Bft)
08.02.2011 02:00 6,0 C 83 % 1009,5 hPa 0,0 l/m 35,2 km/h (5 Bft) W-NW 0,00 h 0 W/m 3,3 C -6,1 C 35,2 km/h (5 Bft)
08.02.2011 03:00 5,7 C 85 % 1009,9 hPa 0,0 l/m 33,8 km/h (5 Bft) W-NW 0,00 h 0 W/m 3,3 C -6,2 C 33,8 km/h (5 Bft)
08.02.2011 04:00 5,6 C 88 % 1010,5 hPa 0,0 l/m 33,7 km/h (5 Bft) W-NW 0,00 h 0 W/m 3,7 C -6,4 C 33,7 km/h (5 Bft)
08.02.2011 05:00 5,4 C 89 % 1011,6 hPa 0,0 l/m 33,5 km/h (5 Bft) W-NW 0,00 h 0 W/m 3,7 C -6,6 C 33,5 km/h (5 Bft)
08.02.2011 06:00 5,2 C 89 % 1012,5 hPa 0,0 l/m 32,5 km/h (5 Bft) W-NW 0,00 h 0 W/m 3,5 C -6,6 C 32,5 km/h (5 Bft)
08.02.2011 07:00 4,9 C 89 % 1013,3 hPa 0,0 l/m 27,9 km/h (5 Bft) W-NW 0,00 h 0 W/m 3,2 C -5,9 C 27,9 km/h (5 Bft)
08.02.2011 08:00 4,9 C 89 % 1014,4 hPa 0,0 l/m 27,9 km/h (5 Bft) W-NW 0,00 h 0 W/m 3,2 C -6,0 C 27,9 km/h (5 Bft)
08.02.2011 09:00 5,0 C 89 % 1015,3 hPa 0,0 l/m 25,7 km/h (4 Bft) W-NW 0,00 h 0 W/m 3,3 C -5,1 C 25,7 km/h (4 Bft)
08.02.2011 10:00 5,7 C 87 % 1016,5 hPa 0,0 l/m 29,4 km/h (5 Bft) W-NW 0,00 h 0 W/m 3,7 C -5,2 C 29,4 km/h (5 Bft)
08.02.2011 11:00 6,5 C 84 % 1017,3 hPa 0,0 l/m 28,6 km/h (5 Bft) W-NW 0,00 h 0 W/m 4,0 C -3,8 C 28,6 km/h (5 Bft)
08.02.2011 12:00 6,9 C 82 % 1017,7 hPa 0,0 l/m 29,2 km/h (5 Bft) W-NW 0,00 h 0 W/m 4,1 C -3,4 C 29,2 km/h (5 Bft)
08.02.2011 13:00 7,2 C 81 % 1018,1 hPa 0,0 l/m 30,2 km/h (5 Bft) NW 0,00 h 0 W/m 4,2 C -3,3 C 30,2 km/h (5 Bft)
08.02.2011 14:00 7,2 C 81 % 1018,5 hPa 0,0 l/m 29,5 km/h (5 Bft) W-NW 0,00 h 0 W/m 4,1 C -3,1 C 29,5 km/h (5 Bft)
08.02.2011 15:00 6,7 C 82 % 1019,2 hPa 0,0 l/m 30,1 km/h (5 Bft) W-NW 0,00 h 0 W/m 3,9 C -4,0 C 30,1 km/h (5 Bft)
08.02.2011 16:00 5,9 C 86 % 1019,6 hPa 0,0 l/m 26,8 km/h (4 Bft) W-NW 0,00 h 0 W/m 3,6 C -4,3 C 26,8 km/h (4 Bft)
08.02.2011 17:00 5,1 C 89 % 1020,0 hPa 0,0 l/m 24,2 km/h (4 Bft) W-NW 0,00 h 0 W/m 3,4 C -4,5 C 24,2 km/h (4 Bft)
08.02.2011 18:00 4,8 C 90 % 1020,5 hPa 0,0 l/m 22,2 km/h (4 Bft) W-NW 0,00 h 0 W/m 3,3 C -4,1 C 22,2 km/h (4 Bft)
08.02.2011 19:00 4,6 C 90 % 1020,5 hPa 0,0 l/m 18,4 km/h (3 Bft) W-NW 0,00 h 0 W/m 3,2 C -2,9 C 18,4 km/h (3 Bft)
08.02.2011 20:00 4,5 C 91 % 1020,5 hPa 0,0 l/m 19,5 km/h (3 Bft) W-NW 0,00 h 0 W/m 3,2 C -3,5 C 19,5 km/h (3 Bft)
08.02.2011 21:00 4,7 C 90 % 1021,3 hPa 0,0 l/m 18,8 km/h (3 Bft) W-NW 0,00 h 0 W/m 3,1 C -3,1 C 18,8 km/h (3 Bft)
08.02.2011 22:00 4,4 C 88 % 1021,5 hPa 0,0 l/m 18,2 km/h (3 Bft) W-NW 0,00 h 0 W/m 2,5 C -3,1 C 18,2 km/h (3 Bft)
08.02.2011 23:00 4,3 C 88 % 1021,5 hPa 0,0 l/m 16,1 km/h (3 Bft) W-NW 0,00 h 0 W/m 2,6 C -2,2 C 16,1 km/h (3 Bft)
09.02.2011 00:00 4,4 C 89 % 1021,5 hPa 0,0 l/m 15,6 km/h (3 Bft) W 0,00 h 0 W/m 2,9 C -1,9 C 15,6 km/h (3 Bft)
09.02.2011 01:00 4,3 C 91 % 1021,4 hPa 0,0 l/m 13,6 km/h (3 Bft) W 0,00 h 0 W/m 3,0 C -0,9 C 13,6 km/h (3 Bft)
09.02.2011 02:00 4,2 C 91 % 1021,1 hPa 0,0 l/m 17,8 km/h (3 Bft) W-NW 0,00 h 0 W/m 2,9 C -3,2 C 17,8 km/h (3 Bft)
09.02.2011 03:00 4,2 C 90 % 1021,5 hPa 0,0 l/m 16,6 km/h (3 Bft) W-NW 0,00 h 0 W/m 2,7 C -2,7 C 16,6 km/h (3 Bft)
09.02.2011 04:00 4,2 C 89 % 1021,5 hPa 0,0 l/m 17,3 km/h (3 Bft) W-NW 0,00 h 0 W/m 2,5 C -3,0 C 17,3 km/h (3 Bft)
09.02.2011 05:00 4,0 C 89 % 1021,5 hPa 0,0 l/m 15,5 km/h (3 Bft) W-NW 0,00 h 0 W/m 2,3 C -2,3 C 15,5 km/h (3 Bft)
09.02.2011 06:00 4,0 C 88 % 1021,5 hPa 0,0 l/m 9,2 km/h (2 Bft) W-NW 0,00 h 0 W/m 2,2 C 1,6 C 9,2 km/h (2 Bft)
09.02.2011 07:00 3,9 C 88 % 1021,5 hPa 0,0 l/m 9,0 km/h (2 Bft) W 0,00 h 0 W/m 2,0 C 1,6 C 9,0 km/h (2 Bft)
09.02.2011 08:00 3,4 C 87 % 1022,5 hPa 0,0 l/m 10,8 km/h (2 Bft) W-SW 0,00 h 0 W/m 1,4 C -0,2 C 10,8 km/h (2 Bft)
09.02.2011 09:00 2,8 C 87 % 1022,5 hPa 0,0 l/m 9,6 km/h (2 Bft) W-SW 0,00 h 0 W/m 0,8 C -0,1 C 9,6 km/h (2 Bft)
09.02.2011 10:00 2,8 C 86 % 1022,5 hPa 0,0 l/m 8,1 km/h (2 Bft) S 0,00 h 0 W/m 0,7 C 1,2 C 8,1 km/h (2 Bft)
09.02.2011 11:00 3,1 C 85 % 1022,5 hPa 0,0 l/m 8,3 km/h (2 Bft) S 0,00 h 0 W/m 0,9 C 1,4 C 8,3 km/h (2 Bft)
09.02.2011 12:00 3,7 C 84 % 1021,8 hPa 0,0 l/m 7,2 km/h (2 Bft) S 0,00 h 0 W/m 1,2 C 2,7 C 7,2 km/h (2 Bft)
09.02.2011 13:00 5,7 C 79 % 1021,5 hPa 0,0 l/m 6,8 km/h (2 Bft) SW 0,00 h 0 W/m 2,3 C 5,0 C 6,8 km/h (2 Bft)
09.02.2011 14:00 6,2 C 77 % 1021,5 hPa 0,0 l/m 6,6 km/h (2 Bft) W-SW 0,00 h 0 W/m 2,4 C 5,6 C 6,6 km/h (2 Bft)
09.02.2011 15:00 6,2 C 76 % 1021,5 hPa 0,0 l/m 1,8 km/h (1 Bft) S 0,00 h 0 W/m 2,3 C 6,2 C 1,8 km/h (1 Bft)
09.02.2011 16:00 5,9 C 78 % 1020,6 hPa 0,0 l/m 7,4 km/h (2 Bft) S-SO 0,00 h 0 W/m 2,3 C 4,7 C 7,4 km/h (2 Bft)
09.02.2011 17:00 5,1 C 80 % 1020,5 hPa 0,0 l/m 9,5 km/h (2 Bft) S-SO 0,00 h 0 W/m 2,0 C 2,6 C 9,5 km/h (2 Bft)
09.02.2011 18:00 4,4 C 82 % 1020,5 hPa 0,0 l/m 11,0 km/h (2 Bft) S-SO 0,00 h 0 W/m 1,5 C 0,8 C 11,0 km/h (2 Bft)
09.02.2011 19:00 4,0 C 83 % 1020,5 hPa 0,0 l/m 11,3 km/h (2 Bft) S-SO 0,00 h 0 W/m 1,4 C 0,1 C 11,3 km/h (2 Bft)
09.02.2011 20:00 3,7 C 85 % 1019,8 hPa 0,0 l/m 13,2 km/h (3 Bft) S-SO 0,00 h 0 W/m 1,4 C -1,5 C 13,2 km/h (3 Bft)
09.02.2011 21:00 3,7 C 85 % 1019,5 hPa 0,0 l/m 12,6 km/h (2 Bft) S 0,00 h 0 W/m 1,4 C -1,1 C 12,6 km/h (2 Bft)
09.02.2011 22:00 3,8 C 85 % 1018,5 hPa 0,0 l/m 16,1 km/h (3 Bft) S 0,00 h 0 W/m 1,4 C -2,9 C 16,1 km/h (3 Bft)
09.02.2011 23:00 3,9 C 83 % 1018,5 hPa 0,0 l/m 14,4 km/h (3 Bft) S 0,00 h 0 W/m 1,3 C -1,8 C 14,4 km/h (3 Bft)
10.02.2011 00:00 4,1 C 81 % 1017,6 hPa 0,0 l/m 14,2 km/h (3 Bft) S 0,00 h 0 W/m 1,1 C -1,5 C 14,2 km/h (3 Bft)
10.02.2011 01:00 4,0 C 79 % 1017,5 hPa 0,0 l/m 13,7 km/h (3 Bft) S 0,00 h 0 W/m 0,7 C -1,4 C 13,7 km/h (3 Bft)
10.02.2011 02:00 3,7 C 79 % 1017,0 hPa 0,0 l/m 15,6 km/h (3 Bft) S 0,00 h 0 W/m 0,4 C -2,7 C 15,6 km/h (3 Bft)
10.02.2011 03:00 3,4 C 79 % 1015,9 hPa 0,0 l/m 14,9 km/h (3 Bft) S 0,00 h 0 W/m 0,1 C -2,8 C 14,9 km/h (3 Bft)
10.02.2011 04:00 2,9 C 79 % 1015,1 hPa 0,0 l/m 14,8 km/h (3 Bft) S 0,00 h 0 W/m -0,3 C -3,2 C 14,8 km/h (3 Bft)
10.02.2011 05:00 3,1 C 78 % 1014,5 hPa 0,0 l/m 12,9 km/h (3 Bft) S 0,00 h 0 W/m -0,3 C -2,0 C 12,9 km/h (3 Bft)
10.02.2011 06:00 3,5 C 76 % 1013,5 hPa 0,0 l/m 15,4 km/h (3 Bft) S 0,00 h 0 W/m -0,3 C -2,7 C 15,4 km/h (3 Bft)
10.02.2011 07:00 3,8 C 76 % 1013,1 hPa 0,0 l/m 15,1 km/h (3 Bft) SW 0,00 h 0 W/m 0,1 C -2,3 C 15,1 km/h (3 Bft)
10.02.2011 08:00 4,1 C 79 % 1012,5 hPa 0,0 l/m 20,9 km/h (4 Bft) W-SW 0,00 h 0 W/m 0,7 C -4,5 C 20,9 km/h (4 Bft)
10.02.2011 09:00 4,4 C 80 % 1012,5 hPa 0,0 l/m 28,1 km/h (5 Bft) W-SW 0,00 h 0 W/m 1,3 C -6,7 C 28,1 km/h (5 Bft)
10.02.2011 10:00 5,0 C 83 % 1012,1 hPa 0,0 l/m 26,7 km/h (4 Bft) W-SW 0,00 h 0 W/m 2,2 C -5,5 C 26,7 km/h (4 Bft)
10.02.2011 11:00 5,5 C 85 % 1012,1 hPa 0,0 l/m 29,1 km/h (5 Bft) W-SW 0,00 h 0 W/m 3,2 C -5,4 C 29,1 km/h (5 Bft)
10.02.2011 12:00 6,4 C 86 % 1010,5 hPa 0,0 l/m 31,9 km/h (5 Bft) W-SW 0,00 h 0 W/m 4,2 C -4,8 C 31,9 km/h (5 Bft)
10.02.2011 13:00 6,7 C 87 % 1010,5 hPa 0,0 l/m 29,8 km/h (5 Bft) W-SW 0,00 h 0 W/m 4,7 C -3,9 C 29,8 km/h (5 Bft)
10.02.2011 14:00 6,8 C 89 % 1009,6 hPa 0,0 l/m 27,0 km/h (4 Bft) W-SW 0,00 h 0 W/m 5,2 C -3,0 C 27,0 km/h (4 Bft)
10.02.2011 15:00 6,8 C 92 % 1009,3 hPa 0,3 l/m 31,0 km/h (5 Bft) W 0,00 h 0 W/m 5,7 C -4,1 C 31,0 km/h (5 Bft)
10.02.2011 16:00 6,9 C 94 % 1008,5 hPa 0,3 l/m 33,6 km/h (5 Bft) W 0,00 h 0 W/m 6,0 C -4,5 C 33,6 km/h (5 Bft)
10.02.2011 17:00 7,1 C 94 % 1008,5 hPa 0,6 l/m 34,0 km/h (5 Bft) W 0,00 h 0 W/m 6,3 C -4,2 C 34,0 km/h (5 Bft)
10.02.2011 18:00 7,2 C 95 % 1008,5 hPa 0,6 l/m 28,2 km/h (5 Bft) W 0,00 h 0 W/m 6,5 C -2,8 C 28,2 km/h (5 Bft)
10.02.2011 19:00 6,8 C 95 % 1008,5 hPa 0,6 l/m 23,3 km/h (4 Bft) W-NW 0,00 h 0 W/m 6,0 C -1,9 C 23,3 km/h (4 Bft)
10.02.2011 20:00 6,3 C 95 % 1007,6 hPa 0,0 l/m 23,5 km/h (4 Bft) W-NW 0,00 h 0 W/m 5,6 C -2,7 C 23,5 km/h (4 Bft)
10.02.2011 21:00 6,0 C 95 % 1007,5 hPa 0,0 l/m 20,2 km/h (4 Bft) W-NW 0,00 h 0 W/m 5,2 C -1,9 C 20,2 km/h (4 Bft)
10.02.2011 22:00 5,6 C 95 % 1007,5 hPa 0,0 l/m 15,5 km/h (3 Bft) NW 0,00 h 0 W/m 4,9 C -0,4 C 15,5 km/h (3 Bft)
10.02.2011 23:00 5,3 C 95 % 1007,5 hPa 0,0 l/m 10,8 km/h (2 Bft) W-NW 0,00 h 0 W/m 4,5 C 2,0 C 10,8 km/h (2 Bft)
11.02.2011 00:00 5,2 C 94 % 1007,5 hPa 0,0 l/m 12,0 km/h (2 Bft) N-NW 0,00 h 0 W/m 4,3 C 1,0 C 12,0 km/h (2 Bft)
11.02.2011 01:00 5,3 C 93 % 1007,5 hPa 0,0 l/m 15,4 km/h (3 Bft) N 0,00 h 0 W/m 4,2 C -0,5 C 15,4 km/h (3 Bft)
11.02.2011 02:00 5,3 C 91 % 1007,3 hPa 0,0 l/m 13,1 km/h (3 Bft) NW 0,00 h 0 W/m 3,8 C 0,6 C 13,1 km/h (3 Bft)
11.02.2011 03:00 4,9 C 89 % 1006,5 hPa 0,0 l/m 10,7 km/h (2 Bft) NW 0,00 h 0 W/m 3,2 C 1,6 C 10,7 km/h (2 Bft)
11.02.2011 04:00 4,8 C 89 % 1006,5 hPa 0,0 l/m 11,4 km/h (2 Bft) NW 0,00 h 0 W/m 3,1 C 0,9 C 11,4 km/h (2 Bft)
11.02.2011 05:00 4,5 C 88 % 1006,5 hPa 0,0 l/m 12,4 km/h (2 Bft) W-NW 0,00 h 0 W/m 2,7 C 0,1 C 12,4 km/h (2 Bft)
11.02.2011 06:00 4,7 C 88 % 1006,5 hPa 0,0 l/m 12,2 km/h (2 Bft) W-NW 0,00 h 0 W/m 2,9 C 0,3 C 12,2 km/h (2 Bft)
11.02.2011 07:00 4,7 C 89 % 1006,5 hPa 0,0 l/m 13,6 km/h (3 Bft) W-NW 0,00 h 0 W/m 3,0 C -0,5 C 13,6 km/h (3 Bft)
11.02.2011 08:00 4,7 C 89 % 1006,5 hPa 0,0 l/m 15,4 km/h (3 Bft) W-NW 0,00 h 0 W/m 2,9 C -1,5 C 15,4 km/h (3 Bft)
11.02.2011 09:00 4,7 C 90 % 1007,3 hPa 0,0 l/m 18,4 km/h (3 Bft) W-NW 0,00 h 0 W/m 3,1 C -2,8 C 18,4 km/h (3 Bft)
11.02.2011 10:00 5,2 C 89 % 1007,5 hPa 0,0 l/m 22,1 km/h (4 Bft) W-NW 0,00 h 0 W/m 3,6 C -3,6 C 22,1 km/h (4 Bft)
11.02.2011 11:00 6,1 C 88 % 1007,5 hPa 0,0 l/m 23,8 km/h (4 Bft) NW 0,00 h 0 W/m 4,2 C -3,0 C 23,8 km/h (4 Bft)
11.02.2011 12:00 7,1 C 84 % 1007,5 hPa 0,0 l/m 25,4 km/h (4 Bft) NW 0,00 h 0 W/m 4,5 C -2,2 C 25,4 km/h (4 Bft)
11.02.2011 13:00 7,4 C 82 % 1007,5 hPa 0,0 l/m 27,5 km/h (5 Bft) NW 0,00 h 0 W/m 4,5 C -2,3 C 27,5 km/h (5 Bft)
11.02.2011 14:00 6,6 C 84 % 1008,2 hPa 0,0 l/m 26,3 km/h (4 Bft) NW 0,00 h 0 W/m 4,1 C -3,1 C 26,3 km/h (4 Bft)
11.02.2011 15:00 5,9 C 84 % 1008,8 hPa 0,0 l/m 27,0 km/h (4 Bft) NW 0,00 h 0 W/m 3,5 C -4,2 C 27,0 km/h (4 Bft)
11.02.2011 16:00 5,0 C 84 % 1009,5 hPa 0,0 l/m 24,8 km/h (4 Bft) N-NW 0,00 h 0 W/m 2,5 C -4,8 C 24,8 km/h (4 Bft)
11.02.2011 17:00 4,4 C 78 % 1010,3 hPa 0,0 l/m 21,4 km/h (4 Bft) N 0,00 h 0 W/m 1,0 C -4,5 C 21,4 km/h (4 Bft)
11.02.2011 18:00 3,9 C 78 % 1011,1 hPa 0,0 l/m 26,4 km/h (4 Bft) N-NO 0,00 h 0 W/m 0,4 C -6,8 C 26,4 km/h (4 Bft)
11.02.2011 19:00 3,1 C 78 % 1011,8 hPa 0,0 l/m 23,3 km/h (4 Bft) NO 0,00 h 0 W/m -0,3 C -6,8 C 23,3 km/h (4 Bft)
11.02.2011 20:00 2,6 C 77 % 1013,1 hPa 0,0 l/m 17,4 km/h (3 Bft) NO 0,00 h 0 W/m -1,0 C -4,8 C 17,4 km/h (3 Bft)
11.02.2011 21:00 2,4 C 77 % 1013,9 hPa 0,0 l/m 15,5 km/h (3 Bft) NO 0,00 h 0 W/m -1,1 C -4,2 C 15,5 km/h (3 Bft)
11.02.2011 22:00 2,1 C 79 % 1015,3 hPa 0,0 l/m 14,8 km/h (3 Bft) NO 0,00 h 0 W/m -1,2 C -4,3 C 14,8 km/h (3 Bft)
11.02.2011 23:00 1,7 C 80 % 1016,3 hPa 0,0 l/m 15,3 km/h (3 Bft) O-NO 0,00 h 0 W/m -1,4 C -4,9 C 15,3 km/h (3 Bft)
12.02.2011 00:00 1,2 C 80 % 1016,7 hPa 0,0 l/m 11,7 km/h (2 Bft) O-NO 0,00 h 0 W/m -1,8 C -3,2 C 11,7 km/h (2 Bft)
12.02.2011 01:00 1,2 C 79 % 1017,5 hPa 0,3 l/m 17,7 km/h (3 Bft) O-NO 0,00 h 0 W/m -2,1 C -6,5 C 17,7 km/h (3 Bft)
12.02.2011 02:00 1,0 C 75 % 1018,3 hPa 0,0 l/m 17,7 km/h (3 Bft) O 0,00 h 0 W/m -3,0 C -7,0 C 17,7 km/h (3 Bft)
12.02.2011 03:00 1,0 C 73 % 1018,5 hPa 0,0 l/m 19,2 km/h (3 Bft) O-SO 0,00 h 0 W/m -3,3 C -7,6 C 19,2 km/h (3 Bft)
12.02.2011 04:00 1,0 C 70 % 1018,7 hPa 0,0 l/m 20,6 km/h (4 Bft) O-SO 0,00 h 0 W/m -3,9 C -8,3 C 20,6 km/h (4 Bft)
12.02.2011 05:00 0,7 C 70 % 1018,8 hPa 0,0 l/m 19,7 km/h (3 Bft) O-SO 0,00 h 0 W/m -4,0 C -8,3 C 19,7 km/h (3 Bft)
12.02.2011 06:00 0,8 C 71 % 1019,3 hPa 0,0 l/m 20,1 km/h (4 Bft) SO 0,00 h 0 W/m -3,8 C -8,5 C 20,1 km/h (4 Bft)
12.02.2011 07:00 0,4 C 72 % 1019,5 hPa 0,0 l/m 21,4 km/h (4 Bft) SO 0,00 h 0 W/m -4,1 C -9,6 C 21,4 km/h (4 Bft)
12.02.2011 08:00 0,2 C 72 % 1019,5 hPa 0,0 l/m 22,9 km/h (4 Bft) SO 0,00 h 0 W/m -4,3 C -10,6 C 22,9 km/h (4 Bft)
12.02.2011 09:00 0,3 C 73 % 1019,5 hPa 0,0 l/m 22,2 km/h (4 Bft) SO 0,00 h 0 W/m -3,9 C -10,0 C 22,2 km/h (4 Bft)
12.02.2011 10:00 0,5 C 73 % 1019,5 hPa 0,0 l/m 24,1 km/h (4 Bft) SO 0,00 h 0 W/m -3,7 C -10,6 C 24,1 km/h (4 Bft)
12.02.2011 11:00 1,4 C 70 % 1018,6 hPa 0,0 l/m 23,5 km/h (4 Bft) S-SO 0,00 h 0 W/m -3,5 C -9,1 C 23,5 km/h (4 Bft)
12.02.2011 12:00 2,2 C 67 % 1017,9 hPa 0,0 l/m 27,2 km/h (5 Bft) SO 0,00 h 0 W/m -3,4 C -9,4 C 27,2 km/h (5 Bft)
12.02.2011 13:00 2,4 C 65 % 1017,1 hPa 0,0 l/m 26,3 km/h (4 Bft) SO 0,00 h 0 W/m -3,4 C -8,8 C 26,3 km/h (4 Bft)
12.02.2011 14:00 2,2 C 66 % 1016,5 hPa 0,0 l/m 26,2 km/h (4 Bft) SO 0,00 h 0 W/m -3,5 C -8,9 C 26,2 km/h (4 Bft)
12.02.2011 15:00 1,9 C 66 % 1015,6 hPa 0,0 l/m 24,5 km/h (4 Bft) SO 0,00 h 0 W/m -3,7 C -8,9 C 24,5 km/h (4 Bft)
12.02.2011 16:00 2,0 C 65 % 1014,7 hPa 0,0 l/m 27,9 km/h (5 Bft) SO 0,00 h 0 W/m -3,9 C -9,9 C 27,9 km/h (5 Bft)
12.02.2011 17:00 1,6 C 66 % 1014,3 hPa 0,0 l/m 27,5 km/h (5 Bft) S-SO 0,00 h 0 W/m -4,1 C -10,3 C 27,5 km/h (5 Bft)
12.02.2011 18:00 1,4 C 67 % 1013,6 hPa 0,0 l/m 26,1 km/h (4 Bft) SO 0,00 h 0 W/m -4,0 C -10,1 C 26,1 km/h (4 Bft)
12.02.2011 19:00 1,1 C 72 % 1013,5 hPa 0,0 l/m 25,0 km/h (4 Bft) SO 0,00 h 0 W/m -3,4 C -10,1 C 25,0 km/h (4 Bft)
12.02.2011 20:00 0,1 C 84 % 1012,6 hPa 0,0 l/m 25,0 km/h (4 Bft) S-SO 0,00 h 0 W/m -2,3 C -11,4 C 25,0 km/h (4 Bft)
12.02.2011 21:00 -0,2 C 86 % 1012,3 hPa 0,0 l/m 24,5 km/h (4 Bft) S-SO 0,00 h 0 W/m -2,2 C -11,7 C 24,5 km/h (4 Bft)
12.02.2011 22:00 -0,2 C 87 % 1011,8 hPa 0,0 l/m 25,0 km/h (4 Bft) S-SO 0,00 h 0 W/m -2,1 C -11,9 C 25,0 km/h (4 Bft)
12.02.2011 23:00 -0,2 C 87 % 1011,5 hPa 0,0 l/m 23,8 km/h (4 Bft) S-SO 0,00 h 0 W/m -2,0 C -11,3 C 23,8 km/h (4 Bft)
13.02.2011 00:00 -0,2 C 88 % 1011,3 hPa 0,0 l/m 25,3 km/h (4 Bft) S-SO 0,00 h 0 W/m -1,9 C -12,0 C 25,3 km/h (4 Bft)
13.02.2011 01:00 0,1 C 89 % 1010,5 hPa 0,0 l/m 23,4 km/h (4 Bft) S-SO 0,00 h 0 W/m -1,5 C -10,8 C 23,4 km/h (4 Bft)
13.02.2011 02:00 0,4 C 90 % 1010,5 hPa 0,0 l/m 20,1 km/h (4 Bft) S-SO 0,00 h 0 W/m -1,0 C -9,0 C 20,1 km/h (4 Bft)
13.02.2011 03:00 0,6 C 91 % 1010,2 hPa 0,0 l/m 20,0 km/h (4 Bft) S-SO 0,00 h 0 W/m -0,7 C -8,8 C 20,0 km/h (4 Bft)
13.02.2011 04:00 0,7 C 91 % 1009,9 hPa 0,0 l/m 16,8 km/h (3 Bft) S-SO 0,00 h 0 W/m -0,6 C -7,0 C 16,8 km/h (3 Bft)
13.02.2011 05:00 0,8 C 91 % 1010,4 hPa 0,0 l/m 16,8 km/h (3 Bft) S-SO 0,00 h 0 W/m -0,5 C -6,9 C 16,8 km/h (3 Bft)
13.02.2011 06:00 0,8 C 92 % 1009,9 hPa 0,0 l/m 15,4 km/h (3 Bft) S-SO 0,00 h 0 W/m -0,3 C -6,1 C 15,4 km/h (3 Bft)
13.02.2011 07:00 0,9 C 92 % 1010,3 hPa 0,0 l/m 13,2 km/h (3 Bft) S-SO 0,00 h 0 W/m -0,2 C -4,7 C 13,2 km/h (3 Bft)
13.02.2011 08:00 1,0 C 92 % 1010,5 hPa 0,0 l/m 14,7 km/h (3 Bft) S-SO 0,00 h 0 W/m -0,2 C -5,5 C 14,7 km/h (3 Bft)
13.02.2011 09:00 1,2 C 92 % 1010,5 hPa 0,0 l/m 13,1 km/h (3 Bft) S-SO 0,00 h 0 W/m 0,0 C -4,3 C 13,1 km/h (3 Bft)
13.02.2011 10:00 1,5 C 91 % 1010,5 hPa 0,0 l/m 12,1 km/h (2 Bft) S 0,00 h 0 W/m 0,2 C -3,3 C 12,1 km/h (2 Bft)
13.02.2011 11:00 1,8 C 91 % 1010,5 hPa 0,0 l/m 11,5 km/h (2 Bft) S-SO 0,00 h 0 W/m 0,5 C -2,4 C 11,5 km/h (2 Bft)
13.02.2011 12:00 2,0 C 90 % 1010,5 hPa 0,0 l/m 11,2 km/h (2 Bft) S-SO 0,00 h 0 W/m 0,5 C -2,0 C 11,2 km/h (2 Bft)
13.02.2011 13:00 2,2 C 90 % 1010,5 hPa 0,3 l/m 11,7 km/h (2 Bft) S-SO 0,00 h 0 W/m 0,7 C -2,1 C 11,7 km/h (2 Bft)
13.02.2011 14:00 2,0 C 89 % 1010,5 hPa 0,6 l/m 10,6 km/h (2 Bft) SO 0,00 h 0 W/m 0,4 C -1,5 C 10,6 km/h (2 Bft)
13.02.2011 15:00 1,9 C 90 % 1010,5 hPa 0,6 l/m 11,4 km/h (2 Bft) SO 0,00 h 0 W/m 0,4 C -2,3 C 11,4 km/h (2 Bft)
13.02.2011 16:00 1,7 C 90 % 1010,2 hPa 0,3 l/m 13,9 km/h (3 Bft) SO 0,00 h 0 W/m 0,3 C -4,2 C 13,9 km/h (3 Bft)
13.02.2011 17:00 1,6 C 90 % 1009,5 hPa 0,3 l/m 15,4 km/h (3 Bft) SO 0,00 h 0 W/m 0,1 C -5,2 C 15,4 km/h (3 Bft)
13.02.2011 18:00 1,4 C 91 % 1010,0 hPa 0,0 l/m 14,5 km/h (3 Bft) SO 0,00 h 0 W/m 0,0 C -4,9 C 14,5 km/h (3 Bft)
13.02.2011 19:00 1,2 C 91 % 1010,5 hPa 0,0 l/m 18,3 km/h (3 Bft) SO 0,00 h 0 W/m -0,1 C -7,2 C 18,3 km/h (3 Bft)
13.02.2011 20:00 1,2 C 92 % 1010,5 hPa 0,0 l/m 18,9 km/h (3 Bft) SO 0,00 h 0 W/m -0,1 C -7,5 C 18,9 km/h (3 Bft)
13.02.2011 21:00 1,1 C 92 % 1010,3 hPa 0,0 l/m 18,8 km/h (3 Bft) SO 0,00 h 0 W/m -0,0 C -7,6 C 18,8 km/h (3 Bft)
13.02.2011 22:00 1,1 C 91 % 1010,5 hPa 0,3 l/m 17,9 km/h (3 Bft) SO 0,00 h 0 W/m -0,1 C -7,0 C 17,9 km/h (3 Bft)
13.02.2011 23:00 1,2 C 91 % 1010,3 hPa 0,0 l/m 18,2 km/h (3 Bft) SO 0,00 h 0 W/m -0,1 C -7,1 C 18,2 km/h (3 Bft)
Min-Datum _ 12.02.11 12.02.11 07.02.11 - 09.02.11 - - - 12.02.11 12.02.11 09.02.11
_ Min-Zeit 08:55 13:55 19:39 - 15:20 - - - 08:55 20:50 15:20
Minimum _ -0,2 C 64 % 1003,5 hPa - 0,0 km/h (0 Bft) - - - -4,4 C -14,7 C 0,0 km/h (0 Bft)
Max-Datum _ 07.02.11 10.02.11 09.02.11 10.02.11 07.02.11 - 07.02.11 07.02.11 07.02.11 09.02.11 07.02.11
_ Max-Zeit 20:39 17:45 08:05 17:10 21:50 - 00:04 00:04 04:24 14:59 21:50
Maximum _ 9,1 C 95 % 1022,5 hPa 0,6 l/m 64,9 km/h
W-NW (8 Bft)
- 0,00 h 0 W/m 6,8 C 6,6 C 64,9 km/h
W-NW (8 Bft)
Durchschnitt _ 4,3 C 84 % 1013,5 hPa #6,6 l/m 22,4 km/h (4 Bft) W-NW #0 min. 0 W/m 1,8 C -4,0 C 22,4 km/h (4 Bft)
copyright by Holger Just